createdAt,value
2022-11-26T00:02:23.966Z,11.90
2022-11-26T00:04:57.317Z,11.38
2022-11-26T00:07:30.078Z,10.30
2022-11-26T00:10:00.458Z,9.55
2022-11-26T00:12:31.726Z,10.52
2022-11-26T00:15:10.713Z,9.90
2022-11-26T00:17:38.837Z,10.65
2022-11-26T00:20:07.893Z,10.50
2022-11-26T00:22:46.020Z,10.45
2022-11-26T00:25:28.166Z,9.57
2022-11-26T00:27:59.963Z,8.52
2022-11-26T00:30:30.681Z,9.10
2022-11-26T00:33:01.919Z,9.23
2022-11-26T00:35:29.548Z,9.65
2022-11-26T00:38:00.337Z,9.32
2022-11-26T00:40:33.461Z,8.90
2022-11-26T00:43:01.806Z,9.70
2022-11-26T00:45:31.199Z,10.13
2022-11-26T00:47:59.504Z,10.25
2022-11-26T00:50:27.915Z,10.65
2022-11-26T00:52:58.996Z,10.07
2022-11-26T00:55:38.870Z,11.15
2022-11-26T00:58:07.717Z,11.38
2022-11-26T01:00:35.689Z,12.13
2022-11-26T01:03:04.685Z,10.77
2022-11-26T01:05:33.710Z,11.25
2022-11-26T01:08:07.096Z,12.27
2022-11-26T01:10:34.495Z,13.52
2022-11-26T01:13:01.119Z,12.80
2022-11-26T01:15:28.968Z,14.07
2022-11-26T01:17:55.686Z,14.00
2022-11-26T01:20:34.476Z,15.98
2022-11-26T01:23:01.109Z,14.45
2022-11-26T01:25:28.054Z,14.55
2022-11-26T01:27:54.965Z,14.63
2022-11-26T01:30:26.860Z,15.48
2022-11-26T01:32:53.771Z,14.05
2022-11-26T01:35:21.690Z,13.90
2022-11-26T01:37:49.596Z,12.75
2022-11-26T01:40:31.131Z,13.68
2022-11-26T01:43:14.971Z,12.27
2022-11-26T01:45:42.192Z,11.60
2022-11-26T01:48:23.963Z,10.02
2022-11-26T01:50:53.163Z,10.73
2022-11-26T01:53:29.862Z,11.10
2022-11-26T01:56:02.102Z,11.60
2022-11-26T01:58:39.925Z,10.23
2022-11-26T02:01:07.557Z,9.93
2022-11-26T02:03:48.827Z,10.20
2022-11-26T02:06:19.668Z,9.43
2022-11-26T02:08:47.090Z,9.77
2022-11-26T02:11:22.993Z,9.68
2022-11-26T02:13:56.155Z,11.00
2022-11-26T02:19:36.704Z,10.00
2022-11-26T02:22:36.141Z,9.40
2022-11-26T02:25:24.118Z,9.35
2022-11-26T02:28:05.930Z,10.05
2022-11-26T02:30:38.117Z,10.35
2022-11-26T02:33:18.812Z,10.18
2022-11-26T02:35:47.511Z,10.80
2022-11-26T02:38:21.724Z,9.68
2022-11-26T02:40:48.956Z,10.25
2022-11-26T02:43:16.641Z,9.27
2022-11-26T02:45:49.155Z,9.65
2022-11-26T02:48:22.204Z,11.52
2022-11-26T02:51:00.196Z,10.68
2022-11-26T02:53:29.714Z,10.73
2022-11-26T02:56:07.833Z,10.23
2022-11-26T02:58:35.958Z,10.32
2022-11-26T03:01:07.866Z,10.80
2022-11-26T03:03:40.229Z,11.45
2022-11-26T03:06:11.239Z,11.13
2022-11-26T03:08:38.576Z,10.45
2022-11-26T03:11:06.507Z,10.73
2022-11-26T03:13:33.727Z,10.13
2022-11-26T03:16:00.421Z,10.38
2022-11-26T03:18:27.144Z,11.05
2022-11-26T03:20:54.264Z,9.48
2022-11-26T03:23:20.945Z,10.32
2022-11-26T03:25:47.635Z,10.63
2022-11-26T03:28:14.457Z,9.48
2022-11-26T03:30:41.377Z,9.63
2022-11-26T03:33:08.119Z,9.57
2022-11-26T03:35:35.171Z,9.98
2022-11-26T03:38:01.835Z,10.05
2022-11-26T03:40:28.721Z,8.73
2022-11-26T03:42:55.345Z,8.68
2022-11-26T03:45:21.985Z,9.13
2022-11-26T03:47:49.181Z,9.10
2022-11-26T03:50:15.884Z,10.38
2022-11-26T03:52:42.523Z,9.15
2022-11-26T03:55:09.708Z,8.32
2022-11-26T03:57:36.827Z,9.13
2022-11-26T04:00:06.662Z,8.88
2022-11-26T04:02:34.148Z,8.25
2022-11-26T04:05:00.813Z,8.43
2022-11-26T04:07:27.648Z,8.20
2022-11-26T04:09:54.648Z,8.82
2022-11-26T04:12:21.279Z,7.78
2022-11-26T04:14:47.964Z,8.07
2022-11-26T04:17:14.635Z,7.97
2022-11-26T04:19:41.267Z,8.13
2022-11-26T04:22:08.442Z,7.55
2022-11-26T04:24:35.077Z,8.25
2022-11-26T04:27:01.671Z,9.00
2022-11-26T04:29:28.322Z,8.45
2022-11-26T04:31:54.956Z,8.30
2022-11-26T04:34:21.668Z,8.25
2022-11-26T04:36:48.344Z,8.77
2022-11-26T04:39:15.024Z,8.90
2022-11-26T04:41:42.884Z,8.98
2022-11-26T04:44:09.585Z,8.35
2022-11-26T04:46:36.219Z,8.25
2022-11-26T04:49:02.947Z,7.18
2022-11-26T04:51:29.600Z,7.25
2022-11-26T04:53:57.641Z,6.18
2022-11-26T04:56:25.955Z,6.60
2022-11-26T04:58:52.603Z,5.35
2022-11-26T05:01:19.369Z,6.53
2022-11-26T05:03:46.046Z,6.43
2022-11-26T05:06:12.668Z,6.53
2022-11-26T05:08:39.296Z,7.40
2022-11-26T05:11:06.144Z,7.07
2022-11-26T05:13:32.912Z,6.88
2022-11-26T05:16:00.028Z,6.38
2022-11-26T05:18:26.799Z,8.10
2022-11-26T05:20:53.411Z,7.60
2022-11-26T05:23:20.051Z,7.55
2022-11-26T05:25:47.824Z,7.80
2022-11-26T05:28:14.578Z,8.50
2022-11-26T05:30:41.256Z,8.77
2022-11-26T05:33:08.424Z,8.82
2022-11-26T05:35:35.527Z,9.23
2022-11-26T05:38:02.121Z,9.00
2022-11-26T05:40:28.758Z,8.63
2022-11-26T05:42:55.401Z,8.90
2022-11-26T05:45:22.263Z,8.55
2022-11-26T05:47:48.963Z,7.60
2022-11-26T05:50:15.692Z,8.15
2022-11-26T05:52:42.357Z,7.93
2022-11-26T05:55:09.441Z,8.70
2022-11-26T05:57:37.335Z,7.95
2022-11-26T06:00:05.739Z,7.93
2022-11-26T06:02:38.709Z,8.18
2022-11-26T06:05:06.172Z,7.55
2022-11-26T06:07:32.812Z,7.72
2022-11-26T06:09:59.536Z,7.93
2022-11-26T06:12:26.167Z,8.43
2022-11-26T06:14:52.888Z,8.73
2022-11-26T06:17:19.572Z,8.60
2022-11-26T06:19:46.284Z,8.13
2022-11-26T06:22:13.162Z,8.13
2022-11-26T06:24:40.204Z,8.55
2022-11-26T06:27:07.000Z,8.48
2022-11-26T06:29:33.783Z,9.15
2022-11-26T06:32:00.472Z,10.45
2022-11-26T06:34:27.173Z,10.95
2022-11-26T06:36:53.991Z,10.57
2022-11-26T06:39:20.594Z,13.75
2022-11-26T06:41:47.268Z,12.52
2022-11-26T06:44:13.925Z,11.45
2022-11-26T06:46:40.575Z,12.20
2022-11-26T06:49:07.548Z,11.45
2022-11-26T06:51:34.187Z,13.05
2022-11-26T06:54:01.028Z,13.32
2022-11-26T06:56:27.744Z,14.88
2022-11-26T06:58:57.635Z,14.05
2022-11-26T07:01:26.373Z,14.93
2022-11-26T07:03:53.382Z,14.50
2022-11-26T07:06:25.666Z,13.90
2022-11-26T07:08:54.192Z,15.43
2022-11-26T07:11:21.652Z,18.25
2022-11-26T07:13:48.525Z,19.48
2022-11-26T07:16:15.886Z,14.18
2022-11-26T07:18:42.897Z,14.85
2022-11-26T07:21:12.184Z,14.35
2022-11-26T07:23:39.759Z,12.90
2022-11-26T07:26:08.184Z,13.10
2022-11-26T07:28:35.494Z,12.73
2022-11-26T07:31:15.876Z,12.57
2022-11-26T07:33:44.562Z,13.05
2022-11-26T07:36:17.672Z,15.00
2022-11-26T07:41:14.347Z,14.90
2022-11-26T07:43:42.280Z,15.38
2022-11-26T07:46:12.285Z,14.07
2022-11-26T07:48:40.284Z,13.98
2022-11-26T07:51:08.651Z,13.23
2022-11-26T07:53:35.916Z,12.98
2022-11-26T07:56:06.384Z,12.93
2022-11-26T07:58:33.539Z,14.23
2022-11-26T08:01:11.380Z,15.13
2022-11-26T08:03:42.410Z,13.98
2022-11-26T08:06:11.800Z,14.75
2022-11-26T08:08:38.841Z,12.73
2022-11-26T08:11:13.139Z,10.18
2022-11-26T08:13:41.853Z,10.50
2022-11-26T08:16:09.141Z,11.25
2022-11-26T08:18:36.260Z,9.88
2022-11-26T08:21:03.052Z,10.20
2022-11-26T08:23:31.260Z,10.18
2022-11-26T08:26:21.593Z,10.80
2022-11-26T08:28:46.655Z,10.75
2022-11-26T08:31:15.348Z,9.90
2022-11-26T08:33:42.783Z,10.65
2022-11-26T08:36:10.504Z,10.80
2022-11-26T08:38:37.829Z,11.25
2022-11-26T08:41:07.253Z,11.27
2022-11-26T08:46:26.086Z,10.63
2022-11-26T08:48:55.513Z,11.43
2022-11-26T08:51:22.522Z,11.15
2022-11-26T08:53:49.154Z,10.90
2022-11-26T08:56:16.048Z,9.75
2022-11-26T08:58:45.079Z,9.68
2022-11-26T09:01:15.017Z,9.80
2022-11-26T09:03:41.819Z,9.90
2022-11-26T09:06:09.711Z,9.63
2022-11-26T09:08:55.823Z,9.60
2022-11-26T09:11:23.527Z,9.95
2022-11-26T09:13:50.158Z,9.55
2022-11-26T09:16:16.865Z,9.90
2022-11-26T09:18:43.499Z,10.13
2022-11-26T09:21:10.133Z,10.20
2022-11-26T09:23:36.783Z,10.82
2022-11-26T09:26:03.536Z,9.35
2022-11-26T09:28:30.158Z,9.68
2022-11-26T09:31:01.599Z,10.70
2022-11-26T09:33:29.188Z,9.63
2022-11-26T09:36:07.098Z,9.10
2022-11-26T09:38:34.417Z,8.40
2022-11-26T09:41:13.700Z,8.90
2022-11-26T09:43:57.716Z,8.85
2022-11-26T09:47:12.197Z,9.77
2022-11-26T09:50:00.604Z,9.85
2022-11-26T09:52:34.652Z,10.23
2022-11-26T09:55:14.248Z,9.00
2022-11-26T09:57:51.505Z,8.30
2022-11-26T10:00:33.868Z,8.13
2022-11-26T10:03:00.923Z,7.40
2022-11-26T10:05:47.472Z,7.32
2022-11-26T10:08:41.312Z,7.60
2022-11-26T10:11:37.672Z,7.20
2022-11-26T10:14:31.576Z,6.65
2022-11-26T10:17:27.357Z,6.40
2022-11-26T10:20:15.249Z,6.32
2022-11-26T10:23:05.880Z,6.22
2022-11-26T10:25:39.314Z,6.40
2022-11-26T10:28:29.269Z,7.50
2022-11-26T10:31:19.437Z,5.43
2022-11-26T10:33:54.372Z,5.10
2022-11-26T10:36:29.283Z,6.53
2022-11-26T10:38:56.550Z,6.68
2022-11-26T10:41:26.546Z,6.57
2022-11-26T10:43:53.222Z,8.05
2022-11-26T10:46:36.259Z,9.50
2022-11-26T10:49:23.977Z,8.75
2022-11-26T10:51:54.575Z,9.15
2022-11-26T10:54:38.762Z,9.98
2022-11-26T10:57:08.684Z,8.98
2022-11-26T10:59:55.951Z,9.48
2022-11-26T11:02:22.547Z,9.50
2022-11-26T11:04:51.731Z,9.73
2022-11-26T11:07:53.881Z,9.95
2022-11-26T11:10:24.263Z,10.40
2022-11-26T11:13:03.353Z,9.88
2022-11-26T11:15:33.957Z,9.65
2022-11-26T11:18:06.883Z,10.02
2022-11-26T11:20:37.311Z,10.00
2022-11-26T11:23:10.470Z,9.48
2022-11-26T11:25:44.053Z,9.10
2022-11-26T11:28:21.477Z,8.68
2022-11-26T11:31:15.744Z,8.80
2022-11-26T11:33:43.159Z,8.38
2022-11-26T11:36:15.692Z,9.50
2022-11-26T11:38:52.390Z,8.57
2022-11-26T11:41:38.445Z,8.88
2022-11-26T11:44:42.286Z,8.50
2022-11-26T11:47:36.469Z,8.38
2022-11-26T11:50:41.956Z,7.63
2022-11-26T11:53:08.544Z,6.55
2022-11-26T11:55:40.845Z,7.22
2022-11-26T11:58:28.553Z,7.07
2022-11-26T12:01:25.388Z,6.82
2022-11-26T12:04:21.007Z,6.60
2022-11-26T12:07:13.549Z,7.63
2022-11-26T12:09:52.152Z,7.25
2022-11-26T12:12:28.987Z,6.53
2022-11-26T12:14:58.729Z,6.93
2022-11-26T12:17:43.867Z,6.82
2022-11-26T12:20:38.469Z,6.70
2022-11-26T12:23:24.368Z,6.32
2022-11-26T12:26:07.033Z,6.50
2022-11-26T12:29:01.869Z,6.53
2022-11-26T12:31:39.196Z,6.22
2022-11-26T12:34:12.723Z,7.28
2022-11-26T12:36:39.517Z,7.22
2022-11-26T12:39:18.954Z,6.88
2022-11-26T12:42:07.791Z,8.05
2022-11-26T12:44:40.755Z,7.40
2022-11-26T12:47:26.328Z,6.55
2022-11-26T12:49:52.932Z,6.78
2022-11-26T12:52:32.418Z,6.45
2022-11-26T12:55:03.680Z,6.43
2022-11-26T12:57:38.263Z,6.43
2022-11-26T13:00:13.719Z,6.45
2022-11-26T13:02:46.685Z,6.28
2022-11-26T13:05:34.716Z,7.03
2022-11-26T13:08:29.062Z,6.63
2022-11-26T13:11:14.336Z,6.38
2022-11-26T13:14:09.797Z,6.57
2022-11-26T13:16:51.500Z,6.47
2022-11-26T13:19:32.942Z,6.60
2022-11-26T13:22:28.926Z,7.88
2022-11-26T13:25:10.029Z,7.13
2022-11-26T13:28:04.606Z,7.32
2022-11-26T13:30:33.915Z,6.90
2022-11-26T13:33:09.463Z,6.82
2022-11-26T13:35:45.140Z,7.22
2022-11-26T13:38:30.743Z,7.20
2022-11-26T13:41:21.997Z,7.07
2022-11-26T13:44:15.705Z,7.45
2022-11-26T13:46:42.371Z,8.90
2022-11-26T13:49:35.749Z,7.43
2022-11-26T13:52:05.971Z,7.68
2022-11-26T13:54:44.924Z,7.50
2022-11-26T13:57:17.132Z,8.52
2022-11-26T13:59:48.623Z,8.75
2022-11-26T14:02:42.708Z,8.50
2022-11-26T14:05:17.292Z,7.38
2022-11-26T14:07:45.571Z,7.80
2022-11-26T14:10:33.999Z,8.60
2022-11-26T14:13:03.488Z,7.20
2022-11-26T14:15:42.326Z,7.20
2022-11-26T14:18:17.052Z,8.65
2022-11-26T14:21:02.205Z,7.57
2022-11-26T14:23:44.532Z,8.75
2022-11-26T14:26:17.780Z,8.30
2022-11-26T14:28:44.817Z,8.40
2022-11-26T14:31:31.762Z,8.93
2022-11-26T14:34:08.168Z,8.85
2022-11-26T14:36:34.792Z,9.73
2022-11-26T14:39:15.430Z,9.23
2022-11-26T14:41:42.095Z,8.23
2022-11-26T14:44:14.089Z,9.38
2022-11-26T14:46:42.973Z,9.60
2022-11-26T14:49:16.111Z,8.93
2022-11-26T14:51:47.465Z,8.98
2022-11-26T14:54:22.687Z,8.20
2022-11-26T14:56:49.511Z,8.38
2022-11-26T14:59:18.431Z,9.20
2022-11-26T15:01:46.316Z,8.52
2022-11-26T15:04:25.812Z,7.78
2022-11-26T15:06:52.576Z,7.82
2022-11-26T15:09:24.356Z,7.47
2022-11-26T15:12:05.398Z,7.40
2022-11-26T15:14:42.449Z,7.88
2022-11-26T15:17:15.261Z,8.38
2022-11-26T15:19:43.078Z,7.32
2022-11-26T15:22:23.381Z,8.23
2022-11-26T15:24:53.824Z,7.53
2022-11-26T15:27:59.111Z,8.25
2022-11-26T15:30:34.627Z,7.88
2022-11-26T15:33:13.763Z,8.15
2022-11-26T15:35:41.424Z,8.88
2022-11-26T15:38:14.375Z,9.77
2022-11-26T15:40:48.224Z,9.50
2022-11-26T15:43:36.247Z,9.20
2022-11-26T15:46:11.293Z,7.97
2022-11-26T15:48:51.954Z,9.43
2022-11-26T15:51:37.756Z,9.55
2022-11-26T15:54:17.729Z,12.45
2022-11-26T15:56:50.304Z,13.40
2022-11-26T15:59:17.462Z,12.32
2022-11-26T16:01:46.198Z,11.88
2022-11-26T16:04:38.042Z,12.30
2022-11-26T16:07:09.644Z,12.73
2022-11-26T16:09:36.798Z,12.52
2022-11-26T16:12:03.653Z,11.93
2022-11-26T16:14:39.243Z,13.18
2022-11-26T16:17:11.713Z,12.35
2022-11-26T16:19:47.208Z,11.73
2022-11-26T16:22:17.184Z,11.65
2022-11-26T16:24:44.320Z,11.77
2022-11-26T16:27:31.871Z,12.13
2022-11-26T16:30:00.085Z,13.00
2022-11-26T16:32:26.841Z,12.60
2022-11-26T16:34:53.482Z,13.18
2022-11-26T16:37:29.134Z,11.98
2022-11-26T16:40:13.563Z,11.85
2022-11-26T16:42:40.420Z,11.65
2022-11-26T16:45:07.880Z,14.30
2022-11-26T16:47:36.989Z,17.40
2022-11-26T16:50:04.409Z,34.65
2022-11-26T16:52:31.088Z,28.52
2022-11-26T16:54:57.720Z,20.65
2022-11-26T16:57:26.795Z,14.43
2022-11-26T17:00:01.467Z,12.82
2022-11-26T17:02:28.249Z,13.10
2022-11-26T17:04:55.078Z,12.63
2022-11-26T17:07:38.077Z,11.68
2022-11-26T17:10:05.775Z,11.40
2022-11-26T17:12:32.405Z,12.27
2022-11-26T17:14:59.039Z,11.48
2022-11-26T17:17:29.371Z,11.57
2022-11-26T17:19:56.816Z,11.52
2022-11-26T17:22:24.631Z,11.10
2022-11-26T17:24:51.665Z,10.23
2022-11-26T17:27:20.140Z,11.00
2022-11-26T17:29:47.689Z,11.30
2022-11-26T17:32:17.408Z,10.38
2022-11-26T17:34:45.084Z,11.68
2022-11-26T17:37:28.976Z,12.55
2022-11-26T17:39:57.682Z,11.30
2022-11-26T17:42:25.255Z,11.43
2022-11-26T17:44:53.364Z,10.85
2022-11-26T17:47:22.737Z,11.82
2022-11-26T17:49:50.313Z,10.48
2022-11-26T17:52:17.599Z,11.35
2022-11-26T17:54:45.367Z,13.55
2022-11-26T17:57:13.693Z,14.98
2022-11-26T17:59:40.752Z,13.63
2022-11-26T18:02:08.190Z,12.40
2022-11-26T18:04:35.372Z,10.25
2022-11-26T18:07:06.910Z,9.95
2022-11-26T18:09:34.617Z,10.95
2022-11-26T18:12:01.471Z,13.60
2022-11-26T18:14:28.587Z,10.75
2022-11-26T18:16:55.579Z,10.95
2022-11-26T18:19:23.695Z,10.80
2022-11-26T18:21:51.635Z,12.45
2022-11-26T18:24:18.338Z,13.40
2022-11-26T18:26:44.967Z,12.48
2022-11-26T18:29:11.997Z,13.23
2022-11-26T18:31:39.825Z,13.00
2022-11-26T18:34:07.333Z,12.30
2022-11-26T18:36:34.006Z,12.93
2022-11-26T18:39:02.354Z,16.30
2022-11-26T18:41:28.972Z,17.52
2022-11-26T18:43:55.648Z,16.88
2022-11-26T18:46:22.355Z,15.88
2022-11-26T18:48:50.303Z,16.73
2022-11-26T18:51:17.839Z,16.77
2022-11-26T18:53:45.115Z,17.45
2022-11-26T18:56:17.075Z,14.75
2022-11-26T18:58:44.756Z,12.95
2022-11-26T19:01:28.508Z,12.95
2022-11-26T19:03:57.154Z,12.52
2022-11-26T19:06:26.229Z,12.55
2022-11-26T19:08:59.254Z,11.50
2022-11-26T19:13:54.725Z,11.52
2022-11-26T19:16:23.094Z,10.43
2022-11-26T19:18:50.306Z,10.48
2022-11-26T19:21:19.778Z,10.32
2022-11-26T19:23:46.613Z,10.43
2022-11-26T19:26:13.788Z,10.27
2022-11-26T19:28:40.666Z,9.63
2022-11-26T19:31:12.999Z,10.02
2022-11-26T19:33:40.479Z,10.88
2022-11-26T19:36:10.320Z,9.45
2022-11-26T19:38:37.852Z,10.93
2022-11-26T19:41:05.468Z,9.90
2022-11-26T19:43:37.591Z,9.50
2022-11-26T19:46:07.014Z,13.17
2022-11-26T19:48:35.881Z,18.05
2022-11-26T19:51:02.709Z,21.13
2022-11-26T19:53:29.649Z,17.80
2022-11-26T19:56:03.020Z,18.05
2022-11-26T19:58:32.835Z,18.88
2022-11-26T20:00:59.971Z,19.45
2022-11-26T20:03:31.723Z,17.88
2022-11-26T20:06:06.452Z,17.52
2022-11-26T20:08:34.689Z,18.53
2022-11-26T20:11:03.161Z,17.23
2022-11-26T20:13:30.079Z,16.70
2022-11-26T20:15:56.896Z,14.77
2022-11-26T20:18:23.796Z,16.15
2022-11-26T20:21:01.401Z,16.50
2022-11-26T20:23:28.648Z,15.93
2022-11-26T20:25:55.622Z,16.48
2022-11-26T20:28:22.558Z,17.58
2022-11-26T20:30:49.843Z,17.52
2022-11-26T20:33:18.848Z,18.05
2022-11-26T20:35:45.873Z,19.98
2022-11-26T20:38:12.933Z,18.42
2022-11-26T20:40:42.140Z,17.92
2022-11-26T20:43:09.896Z,17.67
2022-11-26T20:45:37.311Z,16.73
2022-11-26T20:48:04.825Z,17.23
2022-11-26T20:50:31.644Z,16.52
2022-11-26T20:52:58.611Z,19.17
2022-11-26T20:55:25.396Z,19.38
2022-11-26T20:57:52.132Z,20.48
2022-11-26T21:00:23.552Z,21.00
2022-11-26T21:02:52.940Z,20.23
2022-11-26T21:05:21.385Z,21.55
2022-11-26T21:07:50.873Z,19.25
2022-11-26T21:10:18.178Z,16.00
2022-11-26T21:12:44.865Z,13.65
2022-11-26T21:15:11.716Z,14.55
2022-11-26T21:17:38.440Z,14.55
2022-11-26T21:20:06.271Z,13.50
2022-11-26T21:22:32.961Z,13.70
2022-11-26T21:24:59.558Z,14.50
2022-11-26T21:27:26.186Z,15.95
2022-11-26T21:29:53.154Z,17.83
2022-11-26T21:32:19.865Z,16.55
2022-11-26T21:34:46.531Z,15.63
2022-11-26T21:37:13.155Z,17.48
2022-11-26T21:39:39.960Z,27.75
2022-11-26T21:42:06.817Z,22.98
2022-11-26T21:44:33.712Z,19.05
2022-11-26T21:47:02.665Z,21.42
2022-11-26T21:49:31.382Z,17.45
2022-11-26T21:51:58.799Z,12.30
2022-11-26T21:54:26.442Z,11.90
2022-11-26T21:56:53.208Z,11.82
2022-11-26T21:59:19.904Z,11.13
2022-11-26T22:01:47.045Z,12.75
2022-11-26T22:04:19.410Z,11.30
2022-11-26T22:06:47.922Z,9.98
2022-11-26T22:09:16.189Z,10.45
2022-11-26T22:11:45.021Z,9.88
2022-11-26T22:14:14.889Z,10.57
2022-11-26T22:16:42.166Z,10.15
2022-11-26T22:19:09.701Z,10.98
2022-11-26T22:21:41.529Z,9.25
2022-11-26T22:24:13.201Z,11.05
2022-11-26T22:26:39.934Z,10.73
2022-11-26T22:29:07.463Z,10.18
2022-11-26T22:31:36.513Z,11.48
2022-11-26T22:34:07.070Z,10.23
2022-11-26T22:36:34.467Z,9.20
2022-11-26T22:39:03.487Z,9.30
2022-11-26T22:41:30.295Z,11.15
2022-11-26T22:43:59.609Z,11.82
2022-11-26T22:46:26.656Z,12.90
2022-11-26T22:48:56.886Z,13.23
2022-11-26T22:51:25.667Z,12.98
2022-11-26T22:53:54.511Z,13.02
2022-11-26T22:56:21.719Z,13.18
2022-11-26T22:58:48.819Z,12.60
2022-11-26T23:01:23.461Z,13.18
2022-11-26T23:03:51.173Z,13.18
2022-11-26T23:06:19.886Z,11.82
2022-11-26T23:08:46.733Z,12.05
2022-11-26T23:11:23.587Z,11.70
2022-11-26T23:13:51.025Z,11.48
2022-11-26T23:16:19.710Z,10.82
2022-11-26T23:18:47.045Z,10.38
2022-11-26T23:21:20.445Z,11.48
2022-11-26T23:23:47.347Z,11.57
2022-11-26T23:26:20.512Z,10.85
2022-11-26T23:28:50.030Z,11.30
2022-11-26T23:31:19.701Z,11.52
2022-11-26T23:33:47.256Z,11.20
2022-11-26T23:36:14.866Z,11.68
2022-11-26T23:38:41.819Z,11.13
2022-11-26T23:41:09.176Z,11.45
2022-11-26T23:43:38.039Z,11.02
2022-11-26T23:46:06.286Z,10.57
2022-11-26T23:48:33.729Z,11.48
2022-11-26T23:51:00.739Z,10.70
2022-11-26T23:53:27.520Z,11.27
2022-11-26T23:55:54.107Z,10.43
2022-11-26T23:58:20.748Z,11.10
